Time;durP1;ratioP1;P1;durP2;ratioP2;P2;SDS_P1;SDS_P2;PMS_P1;PMS_P2;Temp;Humidity;BMP_temperature;BMP_pressure;BME280_temperature;BME280_humidity;BME280_pressure;Samples;Min_cycle;Max_cycle;Signal;HPM_P1;HPM_P2
2022/04/08 00:00:57;;;;;;;13.10;1.50;;;7.20;99.90;;;;;;5102101;27;20092;-75
2022/04/08 00:03:24;;;;;;;13.40;1.50;;;7.30;99.90;;;;;;5102074;27;20146;-75
2022/04/08 00:05:52;;;;;;;12.68;1.10;;;7.20;99.90;;;;;;5100877;28;20058;-75
2022/04/08 00:08:18;;;;;;;13.05;1.63;;;7.10;99.90;;;;;;5118655;27;20054;-75
2022/04/08 00:10:44;;;;;;;6.70;0.88;;;6.90;99.90;;;;;;5119108;27;20047;-75
2022/04/08 00:13:10;;;;;;;10.23;1.23;;;6.80;99.90;;;;;;5118629;27;20054;-76
2022/04/08 00:15:38;;;;;;;10.63;0.80;;;6.70;99.90;;;;;;5101779;27;20050;-75
2022/04/08 00:18:07;;;;;;;7.70;0.93;;;6.70;99.90;;;;;;5118649;27;20047;-75
2022/04/08 00:20:36;;;;;;;7.88;0.90;;;6.70;99.90;;;;;;5118745;27;20050;-75
2022/04/08 00:23:04;;;;;;;8.55;1.05;;;6.70;99.90;;;;;;5118628;27;20054;-75
2022/04/08 00:25:30;;;;;;;6.78;0.80;;;6.50;99.90;;;;;;5118819;27;20047;-75
2022/04/08 00:27:55;;;;;;;11.70;1.02;;;6.50;99.90;;;;;;5118170;27;20051;-76
2022/04/08 00:30:21;;;;;;;4.70;0.63;;;6.40;99.90;;;;;;5118430;27;20062;-75
2022/04/08 00:32:47;;;;;;;8.93;0.50;;;6.40;99.90;;;;;;5118444;27;20047;-75
2022/04/08 00:35:13;;;;;;;1.40;0.25;;;6.30;99.90;;;;;;5118378;27;20050;-76
2022/04/08 00:37:40;;;;;;;7.93;0.38;;;6.10;99.90;;;;;;5101393;27;20039;-75
2022/04/08 00:40:07;;;;;;;5.50;0.40;;;5.90;99.90;;;;;;5118199;27;20051;-75
2022/04/08 00:42:33;;;;;;;8.77;0.68;;;5.80;99.90;;;;;;5101277;27;20087;-75
2022/04/08 00:44:59;;;;;;;4.32;0.60;;;5.90;99.90;;;;;;5118364;27;20043;-75
2022/04/08 00:47:24;;;;;;;11.05;0.63;;;5.80;99.90;;;;;;5118323;27;20047;-75
2022/04/08 00:49:52;;;;;;;5.80;0.73;;;5.80;99.90;;;;;;5084475;27;20051;-75
2022/04/08 00:52:18;;;;;;;4.57;0.50;;;5.80;99.90;;;;;;5100956;27;20089;-75
2022/04/08 00:54:45;;;;;;;6.72;0.65;;;5.70;99.90;;;;;;5117721;27;20399;-75
2022/04/08 00:57:12;;;;;;;10.23;1.40;;;5.80;99.90;;;;;;5117592;27;20087;-75
2022/04/08 00:59:38;;;;;;;13.10;1.05;;;5.90;99.90;;;;;;5117976;27;20050;-75
2022/04/08 01:02:04;;;;;;;9.15;0.70;;;5.80;99.90;;;;;;5100925;27;20090;-75
2022/04/08 01:04:31;;;;;;;4.95;1.15;;;5.90;99.90;;;;;;5118581;27;20097;-74
2022/04/08 01:06:56;;;;;;;7.57;1.33;;;5.80;99.90;;;;;;5117444;27;20047;-75
2022/04/08 01:09:23;;;;;;;11.27;1.30;;;5.70;99.90;;;;;;5118333;27;20118;-74
2022/04/08 01:11:49;;;;;;;12.50;1.00;;;5.70;99.90;;;;;;5117658;27;20054;-74
2022/04/08 01:14:16;;;;;;;11.35;1.10;;;5.50;99.90;;;;;;5117540;27;20047;-74
2022/04/08 01:16:42;;;;;;;8.65;1.10;;;5.30;99.90;;;;;;5117507;27;20043;-75
2022/04/08 01:19:08;;;;;;;8.27;1.02;;;5.10;99.90;;;;;;5117313;27;20035;-74
2022/04/08 01:21:34;;;;;;;7.82;1.40;;;5.00;99.90;;;;;;5117153;27;20050;-74
2022/04/08 01:24:01;;;;;;;16.48;1.35;;;5.00;99.90;;;;;;5117508;27;20083;-75
2022/04/08 01:26:27;;;;;;;11.95;1.40;;;5.10;99.90;;;;;;5117170;27;20051;-75
2022/04/08 01:28:54;;;;;;;11.02;1.30;;;5.30;99.90;;;;;;5117169;27;20079;-75
2022/04/08 01:31:20;;;;;;;9.98;1.00;;;5.30;99.90;;;;;;5083130;27;20090;-75
2022/04/08 01:33:46;;;;;;;9.27;1.15;;;5.50;99.90;;;;;;5117305;27;20566;-75
2022/04/08 01:36:12;;;;;;;17.23;1.77;;;5.60;99.90;;;;;;5117163;27;20130;-75
2022/04/08 01:38:37;;;;;;;12.93;1.45;;;5.60;99.90;;;;;;5117333;27;20035;-75
2022/04/08 01:41:03;;;;;;;15.70;1.45;;;5.60;99.90;;;;;;5117255;27;20055;-75
2022/04/08 01:43:29;;;;;;;7.75;1.35;;;5.70;99.90;;;;;;5083228;27;20554;-75
2022/04/08 01:45:55;;;;;;;12.77;1.10;;;5.80;99.90;;;;;;5117857;28;20047;-75
2022/04/08 01:48:20;;;;;;;6.25;1.20;;;5.70;99.90;;;;;;5116701;27;20547;-75
2022/04/08 01:50:46;;;;;;;4.93;0.70;;;5.70;99.90;;;;;;5116951;27;20089;-75
2022/04/08 01:53:13;;;;;;;12.77;0.93;;;5.80;99.90;;;;;;5117015;27;20050;-75
2022/04/08 01:55:39;;;;;;;7.30;0.93;;;6.00;99.90;;;;;;5116701;27;20406;-75
2022/04/08 01:58:06;;;;;;;8.25;1.00;;;6.00;99.90;;;;;;5116432;27;20444;-75
2022/04/08 02:00:32;;;;;;;11.90;1.25;;;5.90;99.90;;;;;;5116610;27;20055;-75
2022/04/08 02:02:57;;;;;;;12.18;1.77;;;5.80;99.90;;;;;;5116485;27;20047;-75
2022/04/08 02:05:23;;;;;;;7.95;0.80;;;5.80;99.90;;;;;;5117571;27;20054;-75
2022/04/08 02:07:49;;;;;;;12.52;1.58;;;5.70;99.90;;;;;;5116642;27;20043;-75
2022/04/08 02:10:15;;;;;;;14.40;0.93;;;5.60;99.90;;;;;;5116838;28;20035;-74
2022/04/08 02:12:42;;;;;;;18.60;2.05;;;5.60;99.90;;;;;;5116449;27;20051;-74
2022/04/08 02:15:08;;;;;;;10.60;1.30;;;5.50;99.90;;;;;;5116405;27;20431;-74
2022/04/08 02:17:34;;;;;;;16.38;1.50;;;5.30;99.90;;;;;;5117068;28;20366;-75
2022/04/08 02:20:00;;;;;;;12.80;1.15;;;5.30;99.90;;;;;;5116522;28;20058;-74
2022/04/08 02:22:29;;;;;;;10.98;1.10;;;5.50;99.90;;;;;;5116524;28;20398;-74
2022/04/08 02:24:56;;;;;;;10.25;1.60;;;5.40;99.90;;;;;;5116592;28;20050;-74
2022/04/08 02:27:23;;;;;;;13.13;1.30;;;5.50;99.90;;;;;;5116094;28;20618;-75
2022/04/08 02:29:52;;;;;;;15.45;1.20;;;5.40;99.90;;;;;;5083879;27;20069;-75
2022/04/08 02:32:18;;;;;;;14.20;1.63;;;5.20;99.90;;;;;;5120872;27;20390;-75
2022/04/08 02:34:44;;;;;;;10.15;1.42;;;5.10;99.90;;;;;;5103427;27;20121;-75
2022/04/08 02:37:09;;;;;;;8.48;0.70;;;5.00;99.90;;;;;;5120663;27;20367;-75
2022/04/08 02:39:35;;;;;;;14.70;1.92;;;4.90;99.90;;;;;;5120670;27;20046;-75
2022/04/08 02:42:01;;;;;;;11.35;1.00;;;4.90;99.90;;;;;;5103302;27;20039;-75
2022/04/08 02:44:30;;;;;;;14.15;1.33;;;4.90;99.90;;;;;;5120520;27;20039;-75
2022/04/08 02:46:57;;;;;;;9.40;1.15;;;5.00;99.90;;;;;;5120473;27;20055;-75
2022/04/08 02:49:22;;;;;;;4.00;0.90;;;4.90;99.90;;;;;;5120446;27;20047;-75
2022/04/08 02:51:48;;;;;;;11.02;1.20;;;4.70;99.90;;;;;;5120213;27;20050;-76
2022/04/08 02:54:15;;;;;;;12.50;1.10;;;4.50;99.90;;;;;;5116412;28;20078;-75
2022/04/08 02:56:41;;;;;;;12.15;1.27;;;4.60;99.90;;;;;;5116489;28;20055;-75
2022/04/08 02:59:08;;;;;;;8.18;1.20;;;4.70;99.90;;;;;;5116881;28;20058;-75
2022/04/08 03:01:34;;;;;;;9.52;1.15;;;4.70;99.90;;;;;;5116964;28;20054;-75
2022/04/08 03:04:00;;;;;;;5.95;0.73;;;4.90;99.90;;;;;;5117195;28;20474;-75
2022/04/08 03:06:26;;;;;;;10.60;1.40;;;5.00;99.90;;;;;;5116672;28;20101;-75
2022/04/08 03:08:52;;;;;;;10.32;0.90;;;5.10;99.90;;;;;;5099631;28;20043;-75
2022/04/08 03:11:18;;;;;;;15.68;1.38;;;5.30;99.90;;;;;;5116507;28;20093;-75
2022/04/08 03:13:44;;;;;;;12.00;1.40;;;5.40;99.90;;;;;;5100114;28;20126;-75
2022/04/08 03:16:09;;;;;;;15.73;1.40;;;5.40;99.90;;;;;;5099580;28;20534;-76
2022/04/08 03:18:35;;;;;;;8.88;1.10;;;5.30;99.90;;;;;;5116546;28;20052;-75
2022/04/08 03:21:01;;;;;;;13.23;1.67;;;5.30;99.90;;;;;;5116518;28;20039;-75
2022/04/08 03:23:26;;;;;;;13.10;1.30;;;5.30;99.90;;;;;;5116432;28;20045;-74
2022/04/08 03:25:52;;;;;;;17.52;1.52;;;5.40;99.90;;;;;;5099093;28;20089;-75
2022/04/08 03:28:18;;;;;;;15.63;1.55;;;5.40;99.90;;;;;;5115937;28;20040;-75
2022/04/08 03:30:43;;;;;;;12.30;1.20;;;5.30;99.90;;;;;;5099095;28;20040;-75
2022/04/08 03:33:09;;;;;;;10.85;1.42;;;5.30;99.90;;;;;;5116286;28;20046;-75
2022/04/08 03:40:47;;;;;;;9.20;1.20;;;5.20;99.90;;;;;;5194147;22;19920;-76
2022/04/08 03:43:14;;;;;;;11.55;1.27;;;5.30;99.90;;;;;;5050132;28;20072;-76
2022/04/08 03:45:39;;;;;;;9.95;1.20;;;5.30;99.90;;;;;;5033824;28;20435;-76
2022/04/08 03:48:07;;;;;;;11.55;1.60;;;5.20;99.90;;;;;;5039655;28;20045;-76
2022/04/08 03:50:33;;;;;;;8.20;1.00;;;5.10;99.90;;;;;;5054622;28;20398;-75
2022/04/08 03:52:58;;;;;;;14.57;1.35;;;5.10;99.90;;;;;;5038254;28;20045;-75
2022/04/08 03:55:24;;;;;;;5.88;0.88;;;5.10;99.90;;;;;;5037917;28;20060;-75
2022/04/08 03:57:50;;;;;;;10.27;1.42;;;5.00;99.90;;;;;;5054351;28;20041;-75
2022/04/08 04:00:16;;;;;;;6.68;1.17;;;5.10;99.90;;;;;;5038254;28;20084;-76
2022/04/08 04:02:41;;;;;;;8.32;1.20;;;5.10;99.90;;;;;;5037986;28;20061;-76
2022/04/08 04:05:08;;;;;;;7.70;1.50;;;4.90;99.90;;;;;;5037816;28;20057;-76
2022/04/08 04:07:33;;;;;;;8.10;1.20;;;4.50;99.90;;;;;;5038432;28;20391;-76
2022/04/08 04:09:59;;;;;;;4.93;1.20;;;4.40;99.90;;;;;;5037965;28;20041;-76
2022/04/08 04:12:26;;;;;;;10.23;1.33;;;4.30;99.90;;;;;;5054935;28;20049;-75
2022/04/08 04:14:54;;;;;;;8.48;1.35;;;4.20;99.90;;;;;;5054585;28;20048;-75
2022/04/08 04:17:20;;;;;;;15.05;1.50;;;4.30;99.90;;;;;;5038336;28;20052;-75
2022/04/08 04:19:46;;;;;;;8.52;1.42;;;4.40;99.90;;;;;;5038197;28;20122;-76
2022/04/08 04:22:12;;;;;;;9.80;1.30;;;4.60;99.90;;;;;;5037982;28;20480;-76
2022/04/08 04:24:38;;;;;;;9.32;1.50;;;4.60;99.90;;;;;;5054253;28;20040;-76
2022/04/08 04:27:03;;;;;;;7.82;1.08;;;4.50;99.90;;;;;;5037939;28;20128;-76
2022/04/08 04:29:29;;;;;;;9.05;1.58;;;4.70;99.90;;;;;;5054338;28;20044;-76
2022/04/08 04:31:56;;;;;;;9.35;1.80;;;4.70;99.90;;;;;;5054149;28;20087;-76
2022/04/08 04:34:25;;;;;;;4.95;1.45;;;4.70;99.90;;;;;;5054399;28;20067;-75
2022/04/08 04:36:51;;;;;;;10.40;1.73;;;4.70;99.90;;;;;;5053523;28;20087;-76
2022/04/08 04:39:17;;;;;;;2.90;1.02;;;4.60;99.90;;;;;;5053905;28;20092;-76
2022/04/08 04:41:42;;;;;;;6.80;1.30;;;4.60;99.90;;;;;;5037649;28;20049;-76
2022/04/08 04:44:08;;;;;;;5.57;1.30;;;4.70;99.90;;;;;;5037726;28;20107;-76
2022/04/08 04:46:34;;;;;;;4.97;1.13;;;4.60;99.90;;;;;;5020786;28;20055;-76
2022/04/08 04:48:59;;;;;;;5.20;1.05;;;4.50;99.90;;;;;;5054016;28;20081;-76
2022/04/08 04:51:26;;;;;;;9.77;2.15;;;4.40;99.90;;;;;;5053656;28;20558;-75
2022/04/08 04:53:52;;;;;;;5.97;1.35;;;4.40;99.90;;;;;;5053059;28;20133;-77
2022/04/08 04:56:18;;;;;;;5.05;1.20;;;4.30;99.90;;;;;;5037599;28;20132;-76
2022/04/08 04:58:43;;;;;;;2.30;1.10;;;4.30;99.90;;;;;;5037010;28;20069;-76
2022/04/08 05:01:09;;;;;;;7.90;1.20;;;4.40;99.90;;;;;;5037282;28;20118;-76
2022/04/08 05:03:35;;;;;;;5.47;1.40;;;4.40;99.90;;;;;;5053352;28;20057;-75
2022/04/08 05:06:00;;;;;;;3.38;0.80;;;4.50;99.90;;;;;;5052906;28;20045;-77
2022/04/08 05:08:26;;;;;;;8.73;1.40;;;4.60;99.90;;;;;;5037074;28;20483;-76
2022/04/08 05:10:51;;;;;;;11.48;1.80;;;4.60;99.90;;;;;;5036863;28;20127;-76
2022/04/08 05:13:18;;;;;;;8.02;1.13;;;4.70;99.90;;;;;;5037138;28;20041;-76
2022/04/08 05:15:45;;;;;;;7.18;1.17;;;4.70;99.90;;;;;;5053262;28;20092;-76
2022/04/08 05:18:11;;;;;;;9.38;1.27;;;4.60;99.90;;;;;;5053537;28;20130;-75
2022/04/08 05:20:37;;;;;;;5.72;0.95;;;4.60;99.90;;;;;;5036580;28;20060;-75
2022/04/08 05:23:03;;;;;;;3.05;0.75;;;4.70;99.90;;;;;;5053008;28;20045;-76
2022/04/08 05:25:28;;;;;;;5.65;1.98;;;4.80;99.90;;;;;;5020001;28;20103;-76
2022/04/08 05:27:54;;;;;;;11.43;2.33;;;4.90;99.90;;;;;;5020241;28;20067;-76
2022/04/08 05:30:20;;;;;;;9.80;1.65;;;4.90;99.90;;;;;;5053247;28;20111;-75
2022/04/08 05:32:46;;;;;;;7.72;1.65;;;4.80;99.90;;;;;;5036309;28;20124;-76
2022/04/08 05:35:14;;;;;;;12.23;1.77;;;4.90;99.90;;;;;;5052651;28;20052;-76
2022/04/08 05:37:44;;;;;;;5.45;1.25;;;4.90;99.90;;;;;;5052938;28;20057;-76
2022/04/08 05:40:16;;;;;;;4.28;1.30;;;4.80;99.90;;;;;;5052975;28;20376;-75
2022/04/08 05:42:44;;;;;;;12.23;1.35;;;4.80;99.90;;;;;;5053167;28;20048;-75
2022/04/08 05:45:10;;;;;;;3.35;1.15;;;4.80;99.90;;;;;;5052806;28;20057;-76
2022/04/08 05:47:36;;;;;;;5.22;1.40;;;4.80;99.90;;;;;;5052707;28;20049;-75
2022/04/08 05:50:04;;;;;;;14.90;2.30;;;4.90;99.90;;;;;;5052808;28;20054;-76
2022/04/08 05:52:29;;;;;;;7.78;1.30;;;5.10;99.90;;;;;;5052477;28;20135;-75
2022/04/08 05:54:55;;;;;;;7.05;1.40;;;5.10;99.90;;;;;;5036286;28;20091;-76
2022/04/08 05:57:21;;;;;;;3.42;1.40;;;5.20;99.90;;;;;;5052698;28;20055;-75
2022/04/08 05:59:47;;;;;;;4.88;1.05;;;5.10;99.90;;;;;;5052591;28;20049;-75
2022/04/08 06:02:13;;;;;;;8.00;1.40;;;5.00;99.90;;;;;;5053106;28;20091;-75
2022/04/08 06:04:39;;;;;;;5.78;1.30;;;5.10;99.90;;;;;;5035041;28;20045;-76
2022/04/08 06:07:05;;;;;;;5.05;1.30;;;5.10;99.90;;;;;;5051949;28;20121;-75
2022/04/08 06:09:30;;;;;;;7.93;1.70;;;5.10;99.90;;;;;;5052372;28;20056;-75
2022/04/08 06:11:59;;;;;;;6.10;1.67;;;5.20;99.90;;;;;;5052540;28;20045;-76
2022/04/08 06:14:28;;;;;;;5.63;1.70;;;5.30;99.90;;;;;;5052378;28;20053;-75
2022/04/08 06:16:54;;;;;;;6.65;1.70;;;5.30;99.90;;;;;;5036275;28;20052;-76
2022/04/08 06:19:20;;;;;;;4.97;1.20;;;5.30;99.90;;;;;;5052428;28;20044;-76
2022/04/08 06:21:45;;;;;;;10.18;1.48;;;5.30;99.90;;;;;;5019774;28;20045;-76
2022/04/08 06:24:11;;;;;;;8.40;1.58;;;5.40;99.90;;;;;;5035698;28;20518;-75
2022/04/08 06:26:38;;;;;;;10.27;1.45;;;5.50;99.90;;;;;;5052215;28;20048;-75
2022/04/08 06:29:04;;;;;;;7.82;1.95;;;5.60;99.90;;;;;;5052408;28;20049;-75
2022/04/08 06:31:33;;;;;;;10.20;2.08;;;5.60;99.90;;;;;;5002481;28;20045;-75
2022/04/08 06:34:00;;;;;;;8.48;2.03;;;5.80;99.90;;;;;;5052131;28;20098;-76
2022/04/08 06:36:27;;;;;;;7.85;1.55;;;5.80;99.90;;;;;;5051710;28;20048;-75
2022/04/08 06:38:53;;;;;;;7.32;2.30;;;5.70;99.90;;;;;;5052520;28;20444;-76
2022/04/08 06:41:19;;;;;;;9.02;2.08;;;5.90;99.90;;;;;;5052155;28;20136;-75
2022/04/08 06:43:44;;;;;;;9.23;1.90;;;5.70;99.90;;;;;;5052177;28;20106;-76
2022/04/08 06:46:11;;;;;;;7.05;1.98;;;5.70;99.90;;;;;;5052322;28;20063;-81
2022/04/08 06:48:36;;;;;;;9.82;2.30;;;5.80;99.90;;;;;;5051870;28;20091;-76
2022/04/08 06:51:04;;;;;;;7.75;1.70;;;5.90;99.90;;;;;;5053175;28;20045;-75
2022/04/08 06:53:33;;;;;;;9.60;1.80;;;5.80;99.90;;;;;;5053112;28;20098;-74
2022/04/08 06:56:04;;;;;;;4.70;1.48;;;5.90;99.90;;;;;;5051869;28;20553;-77
2022/04/08 06:58:30;;;;;;;9.15;1.50;;;5.90;99.90;;;;;;5052141;28;20057;-76
2022/04/08 07:00:57;;;;;;;7.72;1.83;;;6.00;99.90;;;;;;5052147;28;20088;-76
2022/04/08 07:03:23;;;;;;;9.63;1.95;;;6.20;99.90;;;;;;5052702;28;20135;-76
2022/04/08 07:05:49;;;;;;;4.22;1.63;;;6.20;99.90;;;;;;5051335;28;20049;-75
2022/04/08 07:08:15;;;;;;;4.57;1.63;;;6.20;99.90;;;;;;5051763;28;20044;-76
2022/04/08 07:10:40;;;;;;;8.13;1.67;;;6.20;99.90;;;;;;5052724;28;20118;-75
2022/04/08 07:13:07;;;;;;;9.30;2.05;;;6.40;99.90;;;;;;5052108;28;20130;-76
2022/04/08 07:15:33;;;;;;;9.88;1.50;;;6.50;99.90;;;;;;5052502;28;20084;-76
2022/04/08 07:18:00;;;;;;;7.90;1.58;;;6.60;99.90;;;;;;5038811;28;20092;-75
2022/04/08 07:20:26;;;;;;;5.82;1.77;;;6.60;99.90;;;;;;5055459;28;20045;-75
2022/04/08 07:22:52;;;;;;;8.13;1.60;;;6.60;99.90;;;;;;5022736;28;20049;-77
2022/04/08 07:25:18;;;;;;;17.27;2.00;;;6.60;99.90;;;;;;5055501;28;20127;-75
2022/04/08 07:27:50;;;;;;;7.75;1.65;;;6.60;99.90;;;;;;5055729;28;20076;-76
2022/04/08 07:30:18;;;;;;;10.75;2.03;;;6.70;99.90;;;;;;5054981;28;20040;-75
2022/04/08 07:32:44;;;;;;;7.25;1.75;;;6.80;99.90;;;;;;5055180;28;20170;-76
2022/04/08 07:35:10;;;;;;;8.65;1.83;;;6.60;99.90;;;;;;5054903;28;20135;-77
2022/04/08 07:37:37;;;;;;;6.45;1.42;;;6.70;99.90;;;;;;5038574;28;20095;-74
2022/04/08 07:40:10;;;;;;;10.60;2.25;;;6.70;99.90;;;;;;5054949;28;20049;-76
2022/04/08 07:42:36;;;;;;;8.43;1.33;;;7.10;99.90;;;;;;5055309;28;20572;-82
2022/04/08 07:45:03;;;;;;;6.95;1.60;;;7.10;99.90;;;;;;5055078;28;20403;-76
2022/04/08 07:47:30;;;;;;;10.35;1.60;;;6.90;99.90;;;;;;5038797;28;20045;-76
2022/04/08 07:50:04;;;;;;;7.32;1.40;;;6.90;99.90;;;;;;5055234;28;20053;-76
2022/04/08 07:52:29;;;;;;;10.25;1.40;;;6.80;99.90;;;;;;5039351;28;20143;-76
2022/04/08 07:54:56;;;;;;;8.70;1.60;;;6.70;99.90;;;;;;5054869;28;20091;-76
2022/04/08 07:57:21;;;;;;;9.27;1.50;;;6.70;99.90;;;;;;5055933;28;20122;-76
2022/04/08 07:59:48;;;;;;;9.82;1.67;;;6.60;99.90;;;;;;5038507;28;20475;-76
2022/04/08 08:02:14;;;;;;;12.00;2.10;;;6.70;99.90;;;;;;5054935;28;20051;-76
2022/04/08 08:04:40;;;;;;;7.50;1.60;;;6.80;99.90;;;;;;5038396;28;20053;-78
2022/04/08 08:07:06;;;;;;;9.82;2.17;;;7.00;99.90;;;;;;5053999;28;20089;-78
2022/04/08 08:09:33;;;;;;;7.22;1.80;;;7.10;99.90;;;;;;5058262;28;20059;-75
2022/04/08 08:12:03;;;;;;;12.00;1.75;;;7.30;99.90;;;;;;5061155;28;20076;-74
2022/04/08 08:14:29;;;;;;;10.40;1.98;;;7.40;99.90;;;;;;5038121;28;20041;-71
2022/04/08 08:16:54;;;;;;;7.78;1.73;;;7.30;99.90;;;;;;5054452;28;20084;-72
2022/04/08 08:19:20;;;;;;;16.13;2.05;;;7.40;99.90;;;;;;5054555;28;20049;-72
2022/04/08 08:21:46;;;;;;;7.60;1.55;;;7.40;99.90;;;;;;5037872;28;20045;-72
2022/04/08 08:24:12;;;;;;;9.52;1.30;;;7.40;99.90;;;;;;5055513;28;20380;-74
2022/04/08 08:26:37;;;;;;;9.80;1.38;;;7.40;99.90;;;;;;5037161;28;20055;-73
2022/04/08 08:29:03;;;;;;;12.63;1.77;;;7.40;99.90;;;;;;5054208;28;20045;-74
2022/04/08 08:31:29;;;;;;;7.70;1.45;;;7.40;99.90;;;;;;5053964;28;20124;-74
2022/04/08 08:33:55;;;;;;;15.90;2.42;;;7.70;99.90;;;;;;5054197;28;20049;-73
2022/04/08 08:36:22;;;;;;;12.27;1.80;;;7.70;99.90;;;;;;5036984;28;20048;-73
2022/04/08 08:38:47;;;;;;;8.88;1.50;;;7.70;99.90;;;;;;5037381;28;20079;-73
2022/04/08 08:41:14;;;;;;;8.48;1.30;;;7.90;99.90;;;;;;5037489;28;20095;-74
2022/04/08 08:43:39;;;;;;;4.80;1.73;;;7.80;99.90;;;;;;5053845;28;20088;-73
2022/04/08 08:46:07;;;;;;;8.52;1.95;;;7.70;99.90;;;;;;5054066;28;20138;-73
2022/04/08 08:48:37;;;;;;;9.60;1.38;;;7.90;99.90;;;;;;5053777;28;20131;-73
2022/04/08 08:51:06;;;;;;;8.48;1.08;;;7.90;99.90;;;;;;5037416;28;20132;-74
2022/04/08 08:53:33;;;;;;;8.70;1.13;;;7.90;99.90;;;;;;5054961;28;20091;-73
2022/04/08 08:56:00;;;;;;;5.47;1.02;;;7.90;99.90;;;;;;5053967;28;20106;-73
2022/04/08 08:58:28;;;;;;;11.07;1.23;;;7.90;99.90;;;;;;5037322;28;20084;-71
2022/04/08 09:00:53;;;;;;;9.32;0.90;;;7.70;99.90;;;;;;5053774;28;20051;-71
2022/04/08 09:03:19;;;;;;;6.47;1.17;;;8.00;99.90;;;;;;5056878;28;20124;-70
2022/04/08 09:05:52;;;;;;;11.80;1.33;;;8.20;99.90;;;;;;5036447;28;20099;-71
2022/04/08 09:08:17;;;;;;;4.40;0.80;;;8.30;99.90;;;;;;5054664;28;20043;-72
2022/04/08 09:10:48;;;;;;;5.13;0.63;;;8.30;99.90;;;;;;5054542;28;20127;-71
2022/04/08 09:13:22;;;;;;;7.15;0.85;;;8.40;99.90;;;;;;5037844;28;20045;-71
2022/04/08 09:15:54;;;;;;;7.60;0.93;;;8.70;99.90;;;;;;5053524;28;20056;-72
2022/04/08 09:18:20;;;;;;;7.07;1.08;;;8.60;99.90;;;;;;5053229;28;20049;-71
2022/04/08 09:20:49;;;;;;;6.65;0.70;;;8.50;99.90;;;;;;5054292;28;20123;-72
2022/04/08 09:23:19;;;;;;;3.70;0.70;;;8.50;99.90;;;;;;5053226;28;20084;-72
2022/04/08 09:25:49;;;;;;;2.28;0.47;;;8.50;99.90;;;;;;5054413;28;20053;-72
2022/04/08 09:28:17;;;;;;;5.68;0.90;;;8.80;99.90;;;;;;5053638;28;20053;-72
2022/04/08 09:30:55;;;;;;;4.95;0.75;;;8.90;99.90;;;;;;5054086;28;20048;-72
2022/04/08 09:33:27;;;;;;;2.78;0.80;;;9.30;99.90;;;;;;5053852;28;20442;-74
2022/04/08 09:35:55;;;;;;;5.00;0.80;;;9.50;99.90;;;;;;5052597;28;20060;-71
2022/04/08 09:38:32;;;;;;;8.40;0.80;;;9.50;99.90;;;;;;5020159;28;20045;-74
2022/04/08 09:41:04;;;;;;;3.63;0.73;;;9.50;99.90;;;;;;5052648;28;20053;-72
2022/04/08 09:43:32;;;;;;;5.30;0.50;;;9.30;99.90;;;;;;5054225;28;20060;-71
2022/04/08 09:46:19;;;;;;;4.25;0.82;;;8.70;99.90;;;;;;5036385;28;20057;-71
2022/04/08 09:48:46;;;;;;;5.38;1.08;;;8.10;99.90;;;;;;5052851;28;20068;-71
2022/04/08 09:51:20;;;;;;;3.67;0.80;;;7.80;99.90;;;;;;5052700;28;20411;-71
2022/04/08 09:53:49;;;;;;;2.70;0.63;;;7.70;99.90;;;;;;5036183;28;20045;-71
2022/04/08 09:56:20;;;;;;;3.97;0.90;;;7.40;99.90;;;;;;5052840;28;20136;-71
2022/04/08 09:58:52;;;;;;;3.10;0.60;;;7.60;99.90;;;;;;5053144;28;20057;-73
2022/04/08 10:01:18;;;;;;;4.20;0.60;;;7.70;99.90;;;;;;5036445;28;20049;-73
2022/04/08 10:03:44;;;;;;;4.63;1.08;;;7.70;99.90;;;;;;5040671;28;20045;-74
2022/04/08 10:06:12;;;;;;;5.68;0.90;;;8.10;99.90;;;;;;5029417;28;20049;-73
2022/04/08 10:08:38;;;;;;;4.15;1.38;;;8.40;99.90;;;;;;5034863;28;20629;-74
2022/04/08 10:11:10;;;;;;;7.95;0.98;;;8.80;99.90;;;;;;5015732;28;20492;-73
2022/04/08 10:13:48;;;;;;;8.95;0.90;;;9.00;99.90;;;;;;5031085;28;20550;-73
2022/04/08 10:16:19;;;;;;;3.65;1.00;;;9.20;99.90;;;;;;5047288;28;20052;-75
2022/04/08 10:18:46;;;;;;;8.18;0.90;;;9.00;99.90;;;;;;5049256;28;20048;-76
2022/04/08 10:21:13;;;;;;;5.65;0.90;;;9.00;99.90;;;;;;5050927;28;20061;-73
2022/04/08 10:23:50;;;;;;;11.45;1.30;;;9.30;99.90;;;;;;5051627;28;20049;-72
2022/04/08 10:26:17;;;;;;;5.00;0.63;;;9.20;99.90;;;;;;5052599;28;20049;-73
2022/04/08 10:28:43;;;;;;;5.00;0.75;;;9.00;99.90;;;;;;5035561;28;20049;-73
2022/04/08 10:31:20;;;;;;;5.65;0.70;;;8.80;99.90;;;;;;5052093;28;20041;-74
2022/04/08 10:33:56;;;;;;;6.15;1.00;;;8.80;99.90;;;;;;5052090;28;20053;-74
2022/04/08 10:36:44;;;;;;;8.05;0.98;;;9.00;99.90;;;;;;5051831;28;20396;-72
2022/04/08 10:39:21;;;;;;;7.80;1.20;;;9.20;99.90;;;;;;5052240;28;20052;-72
2022/04/08 10:41:52;;;;;;;4.90;0.95;;;9.20;99.90;;;;;;5035772;28;20072;-72
2022/04/08 10:44:39;;;;;;;10.30;1.02;;;9.50;99.90;;;;;;5052032;28;20499;-73
2022/04/08 10:47:14;;;;;;;8.07;1.77;;;9.80;99.90;;;;;;5035633;28;20049;-72
2022/04/08 10:49:50;;;;;;;9.18;0.93;;;10.30;99.90;;;;;;5052038;28;20049;-73
2022/04/08 10:52:26;;;;;;;5.82;0.95;;;10.40;99.90;;;;;;5056359;28;20049;-73
2022/04/08 10:55:04;;;;;;;7.70;0.90;;;10.30;99.90;;;;;;5055905;28;20057;-70
2022/04/08 10:57:44;;;;;;;5.97;0.90;;;10.20;99.90;;;;;;5057572;28;20183;-71
2022/04/08 11:00:17;;;;;;;3.20;0.65;;;9.90;99.90;;;;;;5057286;28;20045;-70
2022/04/08 11:02:43;;;;;;;5.38;0.52;;;9.70;99.90;;;;;;5056080;28;20049;-74
2022/04/08 11:05:11;;;;;;;6.10;1.05;;;9.70;99.90;;;;;;5039053;28;20044;-71
2022/04/08 11:07:48;;;;;;;4.22;0.80;;;9.40;99.90;;;;;;5056528;28;20041;-78
2022/04/08 11:10:16;;;;;;;3.83;0.80;;;9.30;99.90;;;;;;5039341;28;20060;-76
2022/04/08 11:12:47;;;;;;;5.82;0.63;;;9.10;99.90;;;;;;5055727;28;20049;-76
2022/04/08 11:15:23;;;;;;;6.85;1.15;;;9.10;99.90;;;;;;5055985;28;20050;-76
2022/04/08 11:17:49;;;;;;;5.18;0.82;;;9.30;99.90;;;;;;5055592;28;20052;-76
2022/04/08 11:20:17;;;;;;;11.20;1.00;;;9.20;99.90;;;;;;5039308;28;20049;-75
2022/04/08 11:22:45;;;;;;;8.25;1.00;;;9.50;99.90;;;;;;5056761;28;20128;-76
2022/04/08 11:25:20;;;;;;;8.73;1.10;;;9.50;99.90;;;;;;5055520;28;20403;-74
2022/04/08 11:28:12;;;;;;;11.60;1.35;;;9.40;99.90;;;;;;5055420;28;20049;-75
2022/04/08 11:30:39;;;;;;;9.88;1.10;;;9.30;99.90;;;;;;5056203;28;20049;-75
2022/04/08 11:33:18;;;;;;;5.50;0.85;;;9.70;99.90;;;;;;5055257;28;20091;-75
2022/04/08 11:35:45;;;;;;;8.70;0.93;;;9.90;99.90;;;;;;5054802;28;20530;-74
2022/04/08 11:38:12;;;;;;;5.63;0.70;;;9.70;99.90;;;;;;5027270;28;20403;-74
2022/04/08 11:40:38;;;;;;;6.22;1.00;;;9.40;99.90;;;;;;5054912;28;20057;-75
2022/04/08 11:43:03;;;;;;;6.07;0.77;;;9.60;99.90;;;;;;5055290;28;20051;-74
2022/04/08 11:45:30;;;;;;;4.40;0.73;;;9.40;99.90;;;;;;5055232;28;20045;-73
2022/04/08 11:47:55;;;;;;;4.60;0.65;;;9.20;99.90;;;;;;5055167;28;20045;-72
2022/04/08 11:50:26;;;;;;;3.78;0.80;;;9.10;99.90;;;;;;5054922;28;20102;-73
2022/04/08 11:52:56;;;;;;;7.00;0.82;;;9.30;99.90;;;;;;5055954;28;20491;-69
2022/04/08 11:55:24;;;;;;;4.97;0.70;;;9.60;99.90;;;;;;5038468;28;20053;-74
2022/04/08 11:57:50;;;;;;;10.23;1.00;;;9.20;99.90;;;;;;5056130;28;20268;-74
2022/04/08 12:00:16;;;;;;;10.10;0.88;;;9.40;99.90;;;;;;5055129;28;20053;-74
2022/04/08 12:02:42;;;;;;;9.52;1.23;;;9.60;99.90;;;;;;5020497;28;20049;-73
2022/04/08 12:05:08;;;;;;;12.18;1.30;;;10.40;99.90;;;;;;5037895;28;20041;-73
2022/04/08 12:07:34;;;;;;;11.18;1.00;;;10.50;99.90;;;;;;5037650;28;20049;-75
2022/04/08 12:10:00;;;;;;;8.65;0.90;;;11.00;99.90;;;;;;5054763;28;20060;-74
2022/04/08 12:12:29;;;;;;;6.25;1.20;;;11.20;99.90;;;;;;5038187;28;20372;-72
2022/04/08 12:14:55;;;;;;;7.60;1.20;;;11.40;99.90;;;;;;5054687;28;20088;-69
2022/04/08 12:17:21;;;;;;;6.50;1.00;;;10.90;99.90;;;;;;5055617;28;20056;-73
2022/04/08 12:19:53;;;;;;;6.93;0.93;;;10.90;99.90;;;;;;5054685;28;20049;-73
2022/04/08 12:22:21;;;;;;;3.75;0.75;;;10.90;99.90;;;;;;5054295;28;20179;-73
2022/04/08 12:24:48;;;;;;;6.18;0.70;;;10.70;99.90;;;;;;5038548;28;20053;-74
2022/04/08 12:27:19;;;;;;;6.32;0.70;;;10.80;99.90;;;;;;5054449;28;20053;-70
2022/04/08 12:29:56;;;;;;;8.88;0.70;;;11.00;99.90;;;;;;5054075;28;20057;-73
2022/04/08 12:32:24;;;;;;;5.85;1.08;;;11.10;99.90;;;;;;5054202;28;20063;-73
2022/04/08 12:34:50;;;;;;;5.68;0.88;;;11.40;99.90;;;;;;5037599;28;20102;-69
2022/04/08 12:37:16;;;;;;;10.45;1.15;;;11.50;99.90;;;;;;5054864;28;20107;-69
2022/04/08 12:39:42;;;;;;;10.13;0.80;;;11.70;99.90;;;;;;5053892;28;20056;-68
2022/04/08 12:42:07;;;;;;;9.07;1.05;;;11.90;99.90;;;;;;5055271;28;20057;-72
2022/04/08 12:44:33;;;;;;;7.60;1.30;;;12.10;99.90;;;;;;5053810;28;20056;-82
2022/04/08 12:46:59;;;;;;;8.77;1.02;;;11.50;99.90;;;;;;5021105;28;20056;-81
2022/04/08 12:49:25;;;;;;;7.72;0.93;;;10.70;99.90;;;;;;5021171;28;20052;-81
2022/04/08 12:51:50;;;;;;;9.65;1.10;;;10.40;99.90;;;;;;5037876;28;20194;-83
2022/04/08 12:54:16;;;;;;;6.00;0.85;;;10.40;99.90;;;;;;5054246;28;20044;-81
2022/04/08 12:56:42;;;;;;;6.78;1.00;;;10.60;99.90;;;;;;5054032;28;20128;-77
2022/04/08 12:59:10;;;;;;;6.18;0.73;;;10.30;99.90;;;;;;5054116;28;20044;-87